KCVS/CVS METAR and TAF weather

Enter ICAO airport designator
Station Type Date Time Source
KCVS METAR 2019/08/21 22:58 UTC NOAA

KCVS 212258Z AUTO 15011KT 10SM FEW160 34/09 A3002 RMK AO2 SLP096 T03410093 $


Station Type Date Time Source
KCVS Decoded METAR 2019/08/21 22:58 UTC NOAA

Station name not available
Aug 21, 2019 - 06:58 PM EDT / 2019.08.21 2258 UTC
Wind: from the SSE (150 degrees) at 13 MPH (11 KT):0
Visibility: 10 mile(s):0
Sky conditions: mostly clear
Temperature: 93.4 F (34.1 C)
Dew Point: 48.7 F (9.3 C)
Relative Humidity: 21%
Pressure (altimeter): 30.02 in. Hg (1016 hPa)
ob: KCVS 212258Z AUTO 15011KT 10SM FEW160 34/09 A3002 RMK AO2 SLP096 T03410093
cycle: 23

Station Type Date Time Source
KCVS TAF 2019/08/21 18:33 UTC NOAA

TAF KCVS 211812Z 2118/2224 20010G20KT 9999 FEW120 QNH3001INS
BECMG 2200/2201 19012G20KT 9000 -SHRA VCTS BKN080CB QNH3002INS
TEMPO 2203/2205 VRB20G30KT 8000 -TSRA
BECMG 2204/2205 17008KT 9999 NSW FEW080 FEW120 QNH3004INS
BECMG 2217/2218 15010G15KT 9999 SCT100 QNH2991INS TX34/2120Z TN18/2211Z

Example: see airport list